Time;durP1;ratioP1;P1;durP2;ratioP2;P2;SDS_P1;SDS_P2;PMS_P1;PMS_P2;Temp;Humidity;BMP_temperature;BMP_pressure;BME280_temperature;BME280_humidity;BME280_pressure;Samples;Min_cycle;Max_cycle;Signal;HPM_P1;HPM_P2
2022/11/16 00:01:52;;;;;;;;;;;10.30;99.90;;;;;;4989810;28;19917;-74
2022/11/16 00:04:18;;;;;;;;;;;10.30;99.90;;;;;;4990533;28;19922;-74
2022/11/16 00:06:45;;;;;;;;;;;10.30;99.90;;;;;;4991804;28;20392;-74
2022/11/16 00:09:22;;;;;;;;;;;10.30;99.90;;;;;;4995609;28;19922;-74
2022/11/16 00:11:51;;;;;;;;;;;10.50;99.90;;;;;;4990184;28;19922;-73
2022/11/16 00:14:17;;;;;;;;;;;10.40;99.90;;;;;;4997418;28;20301;-73
2022/11/16 00:16:43;;;;;;;;;;;10.40;99.90;;;;;;4999391;28;19929;-73
2022/11/16 00:19:09;;;;;;;;;;;10.40;99.90;;;;;;5000207;28;20017;-75
2022/11/16 00:21:34;;;;;;;;;;;10.40;99.90;;;;;;5001565;28;19925;-74
2022/11/16 00:24:00;;;;;;;;;;;10.40;99.90;;;;;;4998098;28;20543;-73
2022/11/16 00:26:26;;;;;;;;;;;10.50;99.90;;;;;;4992146;28;19922;-74
2022/11/16 00:28:52;;;;;;;;;;;10.50;99.90;;;;;;4995081;28;19925;-73
2022/11/16 00:31:18;;;;;;;;;;;10.70;99.90;;;;;;4990723;28;20010;-74
2022/11/16 00:33:43;;;;;;;;;;;10.50;99.90;;;;;;4990968;28;19994;-74
2022/11/16 00:36:10;;;;;;;;;;;10.40;99.90;;;;;;4991898;28;20390;-73
2022/11/16 00:38:35;;;;;;;;;;;10.50;99.90;;;;;;4991849;28;19922;-73
2022/11/16 00:41:01;;;;;;;;;;;10.50;99.90;;;;;;4991008;28;19918;-74
2022/11/16 00:43:26;;;;;;;;;;;10.50;99.90;;;;;;4991577;28;19921;-75
2022/11/16 00:45:52;;;;;;;;;;;10.40;99.90;;;;;;4990789;28;19940;-74
2022/11/16 00:48:18;;;;;;;;;;;10.50;99.90;;;;;;4990700;28;19922;-74
2022/11/16 00:50:44;;;;;;;;;;;10.40;99.90;;;;;;4990334;28;20361;-73
2022/11/16 00:53:11;;;;;;;;;;;10.40;99.90;;;;;;4990423;28;19929;-74
2022/11/16 00:55:37;;;;;;;;;;;10.70;99.90;;;;;;4990340;28;19918;-74
2022/11/16 00:58:02;;;;;;;;;;;10.50;99.90;;;;;;4991233;28;19981;-74
2022/11/16 01:00:28;;;;;;;;;;;10.50;99.90;;;;;;4990037;28;20357;-74
2022/11/16 01:02:53;;;;;;;;;;;10.90;99.90;;;;;;4987863;28;19918;-74
2022/11/16 01:05:19;;;;;;;;;;;10.40;99.90;;;;;;4990057;28;19925;-74
2022/11/16 01:07:52;;;;;;;;;;;10.50;99.90;;;;;;4990050;28;19976;-74
2022/11/16 01:10:19;;;;;;;;;;;12.10;99.90;;;;;;4989894;28;19922;-73
2022/11/16 01:12:45;;;;;;;;;;;10.50;99.90;;;;;;4989498;28;19922;-73
2022/11/16 01:15:11;;;;;;;;;;;10.50;99.90;;;;;;4990100;28;19975;-74
2022/11/16 01:17:37;;;;;;;;;;;10.50;99.90;;;;;;4995040;28;19929;-73
2022/11/16 01:20:04;;;;;;;;;;;10.50;99.90;;;;;;4991398;28;19922;-73
2022/11/16 01:22:30;;;;;;;;;;;10.50;99.90;;;;;;4990420;28;19922;-73
2022/11/16 01:24:56;;;;;;;;;;;10.60;99.90;;;;;;4990704;28;19982;-73
2022/11/16 01:27:21;;;;;;;;;;;10.60;99.90;;;;;;4991827;28;20322;-73
2022/11/16 01:29:47;;;;;;;;;;;10.60;99.90;;;;;;4987959;28;20278;-74
2022/11/16 01:32:12;;;;;;;;;;;10.60;99.90;;;;;;4990746;28;19956;-73
2022/11/16 01:34:38;;;;;;;;;;;10.60;99.90;;;;;;4989231;28;19921;-72
2022/11/16 01:37:03;;;;;;;;;;;10.70;99.90;;;;;;4990860;28;20373;-73
2022/11/16 01:39:29;;;;;;;;;;;10.70;99.90;;;;;;4989100;28;20022;-73
2022/11/16 01:41:54;;;;;;;;;;;10.60;99.90;;;;;;4990096;28;19922;-73
2022/11/16 01:44:32;;;;;;;;;;;10.70;99.90;;;;;;4988779;28;20012;-73
2022/11/16 01:47:01;;;;;;;;;;;10.70;99.90;;;;;;4990170;28;19968;-73
2022/11/16 01:49:29;;;;;;;;;;;10.70;99.90;;;;;;4990516;28;20373;-73
2022/11/16 01:51:58;;;;;;;;;;;10.70;99.90;;;;;;4988137;28;20436;-73
2022/11/16 01:54:24;;;;;;;;;;;10.70;99.90;;;;;;4990299;28;19922;-74
2022/11/16 01:56:50;;;;;;;;;;;10.80;99.90;;;;;;4990242;28;20319;-74
2022/11/16 01:59:16;;;;;;;;;;;10.80;99.90;;;;;;4994986;28;19921;-74
2022/11/16 02:01:42;;;;;;;;;;;10.80;99.90;;;;;;4988766;28;20352;-73
2022/11/16 02:04:11;;;;;;;;;;;10.70;99.90;;;;;;4989559;28;20285;-74
2022/11/16 02:06:49;;;;;;;;;;;10.70;99.90;;;;;;4989714;28;19922;-73
2022/11/16 02:12:14;;;;;;;;;;;10.70;99.90;;;;;;4989079;28;19929;-73
2022/11/16 02:14:42;;;;;;;;;;;10.70;99.90;;;;;;4989423;28;20381;-74
2022/11/16 02:17:26;;;;;;;;;;;10.60;99.90;;;;;;4988672;28;19983;-73
2022/11/16 02:20:10;;;;;;;;;;;10.70;99.90;;;;;;4988122;28;19930;-73
2022/11/16 02:22:48;;;;;;;;;;;10.70;99.90;;;;;;4985674;28;20368;-73
2022/11/16 02:25:19;;;;;;;;;;;10.70;99.90;;;;;;4987857;28;19924;-73
2022/11/16 02:27:47;;;;;;;;;;;10.70;99.90;;;;;;4990462;28;20342;-74
2022/11/16 02:30:13;;;;;;;;;;;10.70;99.90;;;;;;4990256;28;20085;-73
2022/11/16 02:32:45;;;;;;;;;;;10.70;99.90;;;;;;4987408;28;19994;-74
2022/11/16 02:35:16;;;;;;;;;;;10.70;99.90;;;;;;4993110;28;20013;-73
2022/11/16 02:37:44;;;;;;;;;;;10.70;99.90;;;;;;4998261;28;19944;-73
2022/11/16 02:40:11;;;;;;;;;;;10.70;99.90;;;;;;4994669;28;19922;-73
2022/11/16 02:42:40;;;;;;;;;;;10.80;99.90;;;;;;4995500;28;20372;-73
2022/11/16 02:45:07;;;;;;;;;;;11.50;99.90;;;;;;4994839;28;20299;-73
2022/11/16 02:47:34;;;;;;;;;;;10.70;99.90;;;;;;4995079;28;19932;-73
2022/11/16 02:50:09;;;;;;;;;;;10.70;99.90;;;;;;4994876;28;19929;-72
2022/11/16 02:52:35;;;;;;;;;;;10.70;99.90;;;;;;4994342;28;19921;-73
2022/11/16 02:55:01;;;;;;;;;;;10.80;99.90;;;;;;4998545;28;19922;-72
2022/11/16 02:57:41;;;;;;;;;;;10.70;99.90;;;;;;4995790;28;20012;-72
2022/11/16 03:00:09;;;;;;;;;;;10.70;99.90;;;;;;4994502;28;19922;-73
2022/11/16 03:02:41;;;;;;;;;;;10.70;99.90;;;;;;4995558;28;19925;-73
2022/11/16 03:05:30;;;;;;;;;;;10.80;99.90;;;;;;4995902;28;19922;-74
2022/11/16 03:08:02;;;;;;;;;;;10.70;99.90;;;;;;4992051;28;20016;-73
2022/11/16 03:13:14;;;;;;;;;;;10.70;99.90;;;;;;4995837;28;19926;-73
2022/11/16 03:15:40;;;;;;;;;;;10.80;99.90;;;;;;4994107;28;20357;-73
2022/11/16 03:18:07;;;;;;;;;;;10.80;99.90;;;;;;4995965;28;19922;-73
2022/11/16 03:20:33;;;;;;;;;;;10.70;99.90;;;;;;4995708;28;19929;-74
2022/11/16 03:23:00;;;;;;;;;;;10.70;99.90;;;;;;4994119;28;19922;-73
2022/11/16 03:25:29;;;;;;;;;;;10.70;99.90;;;;;;4995464;28;19967;-73
2022/11/16 03:28:02;;;;;;;;;;;10.70;99.90;;;;;;4993909;28;20304;-73
2022/11/16 03:30:30;;;;;;;;;;;10.70;99.90;;;;;;4994017;28;19929;-72
2022/11/16 03:33:00;;;;;;;;;;;10.80;99.90;;;;;;4995584;28;19975;-72
2022/11/16 03:35:28;;;;;;;;;;;10.80;99.90;;;;;;4994788;28;19922;-72
2022/11/16 03:37:56;;;;;;;;;;;10.80;99.90;;;;;;4994862;28;19973;-72
2022/11/16 03:40:23;;;;;;;;;;;11.00;99.90;;;;;;4994418;28;20392;-72
2022/11/16 03:42:49;;;;;;;;;;;10.70;99.90;;;;;;4994484;28;19969;-73
2022/11/16 03:45:15;;;;;;;;;;;11.50;99.90;;;;;;4998191;28;19957;-72
2022/11/16 03:47:41;;;;;;;;;;;10.70;99.90;;;;;;4989381;28;19971;-72
2022/11/16 03:50:07;;;;;;;;;;;10.70;99.90;;;;;;4991317;28;19928;-72
2022/11/16 03:52:33;;;;;;;;;;;10.80;99.90;;;;;;4991858;28;19929;-72
2022/11/16 03:54:58;;;;;;;;;;;10.80;99.90;;;;;;4991882;28;19929;-72
2022/11/16 03:57:24;;;;;;;;;;;10.80;99.90;;;;;;4989942;28;19957;-72
2022/11/16 03:59:49;;;;;;;;;;;11.40;99.90;;;;;;4990801;28;19921;-72
2022/11/16 04:02:15;;;;;;;;;;;10.80;99.90;;;;;;4991794;28;19926;-72
2022/11/16 04:24:13;;;;;;;;;;;10.70;99.90;;;;;;4990884;28;19980;-71
2022/11/16 04:29:23;;;;;;;;;;;10.70;99.90;;;;;;4989849;28;19928;-71
2022/11/16 04:40:01;;;;;;;;;;;10.80;99.90;;;;;;4991369;28;19953;-72
2022/11/16 04:42:27;;;;;;;;;;;10.80;99.90;;;;;;4991140;28;20454;-72
2022/11/16 04:47:42;;;;;;;;;;;10.90;99.90;;;;;;5011329;28;19933;-71
2022/11/16 04:50:08;;;;;;;;;;;10.70;99.90;;;;;;4990644;28;19930;-73
2022/11/16 04:52:33;;;;;;;;;;;10.80;99.90;;;;;;4990356;28;19921;-71
2022/11/16 04:54:59;;;;;;;;;;;11.00;99.90;;;;;;4989829;28;20357;-71
2022/11/16 04:57:24;;;;;;;;;;;10.80;99.90;;;;;;4990453;28;19922;-70
2022/11/16 04:59:50;;;;;;;;;;;12.00;99.90;;;;;;4988983;28;19926;-70
2022/11/16 05:02:16;;;;;;;;;;;10.90;99.90;;;;;;4991161;28;19922;-70
2022/11/16 05:04:42;;;;;;;;;;;10.90;99.90;;;;;;4991476;28;19925;-76
2022/11/16 05:07:10;;;;;;;;;;;10.80;99.90;;;;;;4988804;28;19926;-74
2022/11/16 05:09:38;;;;;;;;;;;10.80;99.90;;;;;;4990401;28;19929;-69
2022/11/16 05:12:04;;;;;;;;;;;10.80;99.90;;;;;;4991156;28;19991;-70
2022/11/16 05:14:30;;;;;;;;;;;10.80;99.90;;;;;;4992154;28;19968;-70
2022/11/16 05:16:59;;;;;;;;;;;10.80;99.90;;;;;;4991394;28;19921;-71
2022/11/16 05:22:09;;;;;;;;;;;10.80;99.90;;;;;;4988031;28;19922;-71
2022/11/16 05:24:34;;;;;;;;;;;11.00;99.90;;;;;;4990298;28;19922;-69
2022/11/16 05:27:01;;;;;;;;;;;10.80;99.90;;;;;;4990480;28;19983;-69
2022/11/16 05:29:26;;;;;;;;;;;10.60;99.90;;;;;;4986191;28;19921;-69
2022/11/16 05:31:52;;;;;;;;;;;10.70;99.90;;;;;;4990617;28;20017;-69
2022/11/16 05:34:17;;;;;;;;;;;10.70;99.90;;;;;;4989218;28;19918;-69
2022/11/16 05:36:43;;;;;;;;;;;10.80;99.90;;;;;;4989569;28;19929;-70
2022/11/16 05:39:10;;;;;;;;;;;10.70;99.90;;;;;;4990532;28;19922;-70
2022/11/16 05:41:35;;;;;;;;;;;10.80;99.90;;;;;;4991323;28;20043;-70
2022/11/16 05:44:01;;;;;;;;;;;11.10;99.90;;;;;;4996782;28;19996;-71
2022/11/16 05:46:26;;;;;;;;;;;10.70;99.90;;;;;;4999533;28;19933;-72
2022/11/16 05:48:52;;;;;;;;;;;10.70;99.90;;;;;;4987168;28;19929;-70
2022/11/16 05:51:17;;;;;;;;;;;10.70;99.90;;;;;;4985860;28;20395;-72
2022/11/16 05:53:43;;;;;;;;;;;10.60;99.90;;;;;;4989379;28;19967;-73
2022/11/16 05:56:09;;;;;;;;;;;10.90;99.90;;;;;;4991047;28;19983;-73
2022/11/16 05:58:35;;;;;;;;;;;10.70;99.90;;;;;;4989891;28;20020;-71
2022/11/16 06:01:01;;;;;;;;;;;10.80;99.90;;;;;;4991459;28;19968;-76
2022/11/16 06:03:27;;;;;;;;;;;10.70;99.90;;;;;;4991815;28;19928;-74
2022/11/16 06:05:56;;;;;;;;;;;11.00;99.90;;;;;;4989996;28;19926;-71
2022/11/16 06:08:22;;;;;;;;;;;10.60;99.90;;;;;;4985985;28;19973;-74
2022/11/16 06:10:48;;;;;;;;;;;10.60;99.90;;;;;;4987145;28;20403;-72
2022/11/16 06:13:14;;;;;;;;;;;10.50;99.90;;;;;;4989493;28;19929;-73
2022/11/16 06:15:39;;;;;;;;;;;10.70;99.90;;;;;;4988013;28;19921;-72
2022/11/16 06:18:05;;;;;;;;;;;10.60;99.90;;;;;;4989908;28;20372;-74
2022/11/16 06:20:31;;;;;;;;;;;10.60;99.90;;;;;;4988627;28;19922;-73
2022/11/16 06:22:57;;;;;;;;;;;10.50;99.90;;;;;;4990370;28;19968;-72
2022/11/16 06:25:22;;;;;;;;;;;10.60;99.90;;;;;;4993054;28;19932;-72
2022/11/16 06:27:48;;;;;;;;;;;10.50;99.90;;;;;;4988624;28;20494;-73
2022/11/16 06:30:13;;;;;;;;;;;10.50;99.90;;;;;;4987923;28;19968;-71
2022/11/16 06:32:39;;;;;;;;;;;10.50;99.90;;;;;;4987060;28;19921;-71
2022/11/16 06:35:05;;;;;;;;;;;10.80;99.90;;;;;;4986980;28;19980;-73
2022/11/16 06:37:33;;;;;;;;;;;10.40;99.90;;;;;;4987668;28;19921;-76
2022/11/16 06:39:59;;;;;;;;;;;10.40;99.90;;;;;;5011469;28;20348;-73
2022/11/16 06:42:24;;;;;;;;;;;10.30;99.90;;;;;;4986241;28;19922;-76
2022/11/16 06:44:50;;;;;;;;;;;10.40;99.90;;;;;;4991199;28;19930;-76
2022/11/16 06:47:15;;;;;;;;;;;10.30;99.90;;;;;;4992770;28;19922;-71
2022/11/16 06:49:41;;;;;;;;;;;10.30;99.90;;;;;;4989714;28;19922;-70
2022/11/16 06:52:06;;;;;;;;;;;10.10;99.90;;;;;;4989584;28;19930;-71
2022/11/16 06:54:32;;;;;;;;;;;10.10;99.90;;;;;;4987793;28;19925;-71
2022/11/16 06:56:57;;;;;;;;;;;10.10;99.90;;;;;;4989204;28;19983;-70
2022/11/16 06:59:23;;;;;;;;;;;10.20;99.90;;;;;;4991188;28;19922;-70
2022/11/16 07:01:48;;;;;;;;;;;10.20;99.90;;;;;;4985105;28;19948;-71
2022/11/16 07:04:14;;;;;;;;;;;10.20;99.90;;;;;;4987738;28;19945;-73
2022/11/16 07:06:39;;;;;;;;;;;10.60;99.90;;;;;;4981886;28;19922;-72
2022/11/16 07:09:05;;;;;;;;;;;10.30;99.90;;;;;;4987116;28;19922;-72
2022/11/16 07:11:30;;;;;;;;;;;10.30;99.90;;;;;;4988081;28;19964;-72
2022/11/16 07:13:56;;;;;;;;;;;10.30;99.90;;;;;;4999737;28;19921;-72
2022/11/16 07:16:22;;;;;;;;;;;10.30;99.90;;;;;;4998729;28;19936;-74
2022/11/16 07:18:47;;;;;;;;;;;10.30;99.90;;;;;;4995590;28;20296;-73
2022/11/16 07:21:14;;;;;;;;;;;10.50;99.90;;;;;;4990277;28;20369;-73
2022/11/16 07:23:39;;;;;;;;;;;10.30;99.90;;;;;;4992212;28;19976;-74
2022/11/16 07:26:06;;;;;;;;;;;10.30;99.90;;;;;;4997137;28;19984;-75
2022/11/16 07:28:31;;;;;;;;;;;10.30;99.90;;;;;;4991173;28;20016;-70
2022/11/16 07:31:04;;;;;;;;;;;10.20;99.90;;;;;;4994023;28;20016;-70
2022/11/16 07:33:29;;;;;;;;;;;10.20;99.90;;;;;;4995408;28;19936;-70
2022/11/16 07:36:02;;;;;;;;;;;10.20;99.90;;;;;;4990215;28;20285;-70
2022/11/16 07:38:28;;;;;;;;;;;10.20;99.90;;;;;;4991257;28;20386;-70
2022/11/16 07:40:53;;;;;;;;;;;10.20;99.90;;;;;;4993874;28;20012;-71
2022/11/16 07:43:19;;;;;;;;;;;10.20;99.90;;;;;;4992117;28;20353;-70
2022/11/16 07:45:44;;;;;;;;;;;10.20;99.90;;;;;;4990704;28;19957;-71
2022/11/16 07:48:10;;;;;;;;;;;10.10;99.90;;;;;;4991210;28;20048;-70
2022/11/16 07:50:35;;;;;;;;;;;10.10;99.90;;;;;;4991275;28;20009;-70
2022/11/16 07:53:01;;;;;;;;;;;10.00;99.90;;;;;;4992850;28;20336;-70
2022/11/16 07:55:30;;;;;;;;;;;10.00;99.90;;;;;;4997638;28;19922;-70
2022/11/16 07:57:59;;;;;;;;;;;10.20;99.90;;;;;;4995704;28;19922;-70
2022/11/16 08:00:25;;;;;;;;;;;10.00;99.90;;;;;;4993445;28;19937;-71
2022/11/16 08:02:50;;;;;;;;;;;10.10;99.90;;;;;;4997604;28;20374;-70
2022/11/16 08:05:16;;;;;;;;;;;10.00;99.90;;;;;;4997743;28;20399;-70
2022/11/16 08:07:47;;;;;;;;;;;10.10;99.90;;;;;;5000550;28;19975;-70
2022/11/16 08:10:13;;;;;;;;;;;10.10;99.90;;;;;;4998659;28;20339;-70
2022/11/16 08:12:41;;;;;;;;;;;10.10;99.90;;;;;;4990557;28;20365;-70
2022/11/16 08:15:07;;;;;;;;;;;10.20;99.90;;;;;;4992302;28;19983;-70
2022/11/16 08:17:36;;;;;;;;;;;10.20;99.90;;;;;;4989456;28;20380;-70
2022/11/16 08:20:01;;;;;;;;;;;10.30;99.90;;;;;;4990855;28;19922;-70
2022/11/16 08:22:30;;;;;;;;;;;10.20;99.90;;;;;;4991821;28;20016;-70
2022/11/16 08:24:58;;;;;;;;;;;10.20;99.90;;;;;;4991510;28;19922;-70
2022/11/16 08:27:24;;;;;;;;;;;10.20;99.90;;;;;;4993284;28;19922;-70
2022/11/16 08:29:49;;;;;;;;;;;10.30;99.90;;;;;;4991346;28;19926;-70
2022/11/16 08:32:15;;;;;;;;;;;10.30;99.90;;;;;;4988918;28;19921;-71
2022/11/16 08:34:40;;;;;;;;;;;10.30;99.90;;;;;;4993628;28;19991;-71
2022/11/16 08:37:06;;;;;;;;;;;10.30;99.90;;;;;;4991549;28;19990;-71
2022/11/16 08:39:31;;;;;;;;;;;10.30;99.90;;;;;;4990252;28;19922;-70
2022/11/16 08:41:57;;;;;;;;;;;10.30;99.90;;;;;;4991868;28;19974;-71
2022/11/16 08:44:22;;;;;;;;;;;10.30;99.90;;;;;;4991387;28;19926;-71
2022/11/16 08:46:48;;;;;;;;;;;11.70;99.90;;;;;;4990494;28;19966;-71
2022/11/16 08:49:16;;;;;;;;;;;10.30;99.90;;;;;;4991568;28;19976;-71
2022/11/16 08:51:42;;;;;;;;;;;10.30;99.90;;;;;;4990697;28;19922;-71
2022/11/16 08:54:08;;;;;;;;;;;10.50;99.90;;;;;;4989566;28;19928;-71
2022/11/16 08:56:33;;;;;;;;;;;10.50;99.90;;;;;;4990858;28;19980;-71
2022/11/16 08:58:59;;;;;;;;;;;10.50;99.90;;;;;;4989607;28;19995;-70
2022/11/16 09:01:26;;;;;;;;;;;10.70;99.90;;;;;;4991233;28;20396;-71
2022/11/16 09:03:51;;;;;;;;;;;10.70;99.90;;;;;;4990167;28;19926;-71
2022/11/16 09:06:17;;;;;;;;;;;11.40;99.90;;;;;;4990354;28;19928;-70
2022/11/16 09:08:43;;;;;;;;;;;10.70;99.90;;;;;;4989662;28;19922;-71
2022/11/16 09:11:10;;;;;;;;;;;10.80;99.90;;;;;;4991278;28;19967;-68
2022/11/16 09:13:36;;;;;;;;;;;11.30;99.90;;;;;;4989853;28;19964;-69
2022/11/16 09:16:02;;;;;;;;;;;10.80;99.90;;;;;;4989783;28;19922;-69
2022/11/16 09:18:28;;;;;;;;;;;10.80;99.90;;;;;;4990762;28;19928;-69
2022/11/16 09:20:54;;;;;;;;;;;10.90;99.90;;;;;;4988725;28;19953;-69
2022/11/16 09:23:22;;;;;;;;;;;11.00;99.90;;;;;;4991061;28;19926;-69
2022/11/16 09:25:47;;;;;;;;;;;11.40;99.90;;;;;;4990513;28;19974;-69
2022/11/16 09:28:17;;;;;;;;;;;11.20;99.90;;;;;;4989247;28;19926;-69
2022/11/16 09:30:44;;;;;;;;;;;11.30;99.90;;;;;;4993905;28;19930;-69
2022/11/16 09:33:09;;;;;;;;;;;12.00;99.90;;;;;;4990313;28;19929;-69
2022/11/16 09:35:35;;;;;;;;;;;11.90;99.90;;;;;;4989771;28;19934;-70
2022/11/16 09:38:00;;;;;;;;;;;11.90;99.90;;;;;;4990784;28;19922;-70
2022/11/16 09:40:32;;;;;;;;;;;12.00;99.90;;;;;;4990965;28;20016;-70
2022/11/16 09:43:17;;;;;;;;;;;11.90;99.90;;;;;;4989900;28;19945;-69
2022/11/16 09:45:51;;;;;;;;;;;11.90;99.90;;;;;;4983828;28;19926;-70
2022/11/16 09:48:17;;;;;;;;;;;12.00;99.90;;;;;;4986397;28;20017;-70
2022/11/16 09:50:48;;;;;;;;;;;12.60;99.90;;;;;;4990825;28;19979;-69
2022/11/16 09:53:36;;;;;;;;;;;13.10;99.90;;;;;;4986771;28;19934;-70
2022/11/16 09:56:06;;;;;;;;;;;13.50;99.90;;;;;;4992169;28;19921;-70
2022/11/16 09:58:41;;;;;;;;;;;13.50;99.90;;;;;;4989895;28;19996;-70
2022/11/16 10:01:15;;;;;;;;;;;13.40;99.90;;;;;;4990694;28;19928;-70
2022/11/16 10:03:44;;;;;;;;;;;14.00;99.90;;;;;;4984660;28;19918;-70
2022/11/16 10:06:16;;;;;;;;;;;14.10;99.90;;;;;;4990404;28;20289;-70
2022/11/16 10:08:46;;;;;;;;;;;13.90;99.90;;;;;;4986380;28;20014;-70
2022/11/16 10:11:23;;;;;;;;;;;14.40;99.90;;;;;;4985032;28;19922;-70
2022/11/16 10:13:58;;;;;;;;;;;15.40;99.90;;;;;;4987568;28;20010;-72
2022/11/16 10:16:24;;;;;;;;;;;16.30;99.90;;;;;;4989147;28;20051;-70
2022/11/16 10:18:55;;;;;;;;;;;16.70;99.90;;;;;;4988447;28;20382;-70
2022/11/16 10:21:23;;;;;;;;;;;17.50;99.90;;;;;;4989878;28;19937;-71
2022/11/16 10:23:58;;;;;;;;;;;18.40;99.90;;;;;;4988945;28;19922;-70
2022/11/16 10:26:31;;;;;;;;;;;19.10;99.90;;;;;;4991596;28;20337;-71
2022/11/16 10:29:15;;;;;;;;;;;19.20;99.90;;;;;;4992031;28;19922;-71
2022/11/16 10:32:09;;;;;;;;;;;19.70;99.90;;;;;;4985663;28;19967;-71
2022/11/16 10:34:41;;;;;;;;;;;20.20;99.90;;;;;;4996428;28;19935;-71
2022/11/16 10:37:09;;;;;;;;;;;20.70;99.80;;;;;;4988219;28;19960;-70
2022/11/16 10:39:39;;;;;;;;;;;20.50;99.80;;;;;;4988851;28;20288;-71
2022/11/16 10:42:09;;;;;;;;;;;20.10;99.90;;;;;;4986056;28;19926;-71
2022/11/16 10:44:37;;;;;;;;;;;20.00;99.90;;;;;;4985252;28;19922;-70
2022/11/16 10:47:03;;;;;;;;;;;19.10;99.90;;;;;;4985909;28;20402;-71
2022/11/16 10:49:47;;;;;;;;;;;18.10;99.90;;;;;;4989956;28;19922;-70
2022/11/16 10:52:12;;;;;;;;;;;17.70;99.90;;;;;;4986642;28;19929;-70
2022/11/16 10:54:38;;;;;;;;;;;17.60;99.90;;;;;;4990666;28;19926;-70
2022/11/16 10:57:12;;;;;;;;;;;17.70;99.90;;;;;;4993314;28;20281;-70
2022/11/16 10:59:39;;;;;;;;;;;17.70;99.90;;;;;;4989198;28;19925;-70
2022/11/16 11:02:40;;;;;;;;;;;18.10;99.90;;;;;;4993182;28;19926;-71
2022/11/16 11:05:14;;;;;;;;;;;18.70;99.90;;;;;;4924929;29;20438;-71
2022/11/16 11:07:42;;;;;;;;;;;19.50;99.90;;;;;;4985999;28;19929;-71
2022/11/16 11:10:27;;;;;;;;;;;19.60;99.90;;;;;;4992865;28;20365;-70
2022/11/16 11:13:16;;;;;;;;;;;19.40;99.90;;;;;;4990760;28;19921;-70
2022/11/16 11:15:42;;;;;;;;;;;19.30;99.90;;;;;;4990183;28;19947;-71
2022/11/16 11:18:22;;;;;;;;;;;19.20;99.90;;;;;;4992873;28;20213;-73
2022/11/16 11:21:09;;;;;;;;;;;19.30;99.90;;;;;;4991867;28;20012;-71
2022/11/16 11:23:46;;;;;;;;;;;18.60;99.90;;;;;;4979070;28;20013;-71
2022/11/16 11:26:24;;;;;;;;;;;17.90;99.90;;;;;;4992609;28;19983;-72
2022/11/16 11:28:50;;;;;;;;;;;17.00;99.90;;;;;;4991871;28;19922;-72
2022/11/16 11:31:24;;;;;;;;;;;16.50;99.90;;;;;;4991711;28;20016;-70
2022/11/16 11:33:53;;;;;;;;;;;16.00;99.90;;;;;;4993950;28;20300;-71
2022/11/16 11:36:23;;;;;;;;;;;15.30;99.90;;;;;;4993093;28;19929;-71
2022/11/16 11:39:06;;;;;;;;;;;15.00;99.90;;;;;;4990937;28;19971;-71
2022/11/16 11:41:33;;;;;;;;;;;14.70;99.90;;;;;;4988782;28;19929;-71
2022/11/16 11:44:13;;;;;;;;;;;14.70;99.90;;;;;;4993171;28;20384;-71
2022/11/16 11:46:41;;;;;;;;;;;14.30;99.90;;;;;;4993527;28;19928;-71
2022/11/16 11:49:17;;;;;;;;;;;13.90;99.90;;;;;;4990270;28;20391;-71
2022/11/16 11:51:46;;;;;;;;;;;13.70;99.90;;;;;;4992157;28;19921;-71
2022/11/16 11:54:21;;;;;;;;;;;13.60;99.90;;;;;;4992341;28;19944;-72
2022/11/16 11:56:46;;;;;;;;;;;13.40;99.90;;;;;;4991262;28;19937;-71
2022/11/16 11:59:16;;;;;;;;;;;13.40;99.90;;;;;;4993043;28;19918;-72
2022/11/16 12:01:48;;;;;;;;;;;13.40;99.90;;;;;;4990428;28;19922;-71
2022/11/16 12:04:29;;;;;;;;;;;13.40;99.90;;;;;;4992650;28;20008;-71
2022/11/16 12:07:18;;;;;;;;;;;13.60;99.90;;;;;;4987975;28;20322;-71
2022/11/16 12:09:50;;;;;;;;;;;14.00;99.90;;;;;;5013966;28;20380;-71
2022/11/16 12:12:27;;;;;;;;;;;14.10;99.90;;;;;;5001289;28;19922;-71
2022/11/16 12:14:55;;;;;;;;;;;14.30;99.90;;;;;;5013821;28;19922;-71
2022/11/16 12:17:24;;;;;;;;;;;14.70;99.90;;;;;;4990202;28;19929;-71
2022/11/16 12:20:06;;;;;;;;;;;14.50;99.90;;;;;;4986978;28;19986;-70
2022/11/16 12:22:51;;;;;;;;;;;13.80;99.90;;;;;;4989283;28;19922;-71
2022/11/16 12:25:23;;;;;;;;;;;13.40;99.90;;;;;;4991375;28;19921;-70
2022/11/16 12:27:52;;;;;;;;;;;13.20;99.90;;;;;;4988022;28;19969;-71
2022/11/16 12:30:18;;;;;;;;;;;13.10;99.90;;;;;;4985895;28;19987;-71
2022/11/16 12:33:00;;;;;;;;;;;13.80;99.90;;;;;;4991848;28;19922;-72
2022/11/16 12:35:44;;;;;;;;;;;14.20;99.90;;;;;;4991246;28;19926;-71
2022/11/16 12:38:23;;;;;;;;;;;14.30;99.90;;;;;;4991150;28;19921;-71
2022/11/16 12:41:07;;;;;;;;;;;14.00;99.90;;;;;;4987744;28;19929;-71
2022/11/16 12:43:45;;;;;;;;;;;13.80;99.90;;;;;;4992347;28;19956;-71
2022/11/16 12:46:28;;;;;;;;;;;14.00;99.90;;;;;;4994228;28;19922;-71
2022/11/16 12:49:00;;;;;;;;;;;13.90;99.90;;;;;;4988545;28;19978;-71
2022/11/16 12:51:36;;;;;;;;;;;13.90;99.90;;;;;;4996667;28;20008;-71
2022/11/16 12:54:26;;;;;;;;;;;14.30;99.90;;;;;;4995092;28;19953;-72
2022/11/16 12:56:57;;;;;;;;;;;14.50;99.90;;;;;;4995431;28;19967;-71
2022/11/16 12:59:46;;;;;;;;;;;14.30;99.90;;;;;;4997415;28;19940;-71
2022/11/16 13:02:41;;;;;;;;;;;13.90;99.90;;;;;;4997958;28;19952;-72
2022/11/16 13:05:13;;;;;;;;;;;13.40;99.90;;;;;;4917492;28;19998;-71
2022/11/16 13:07:44;;;;;;;;;;;13.20;99.90;;;;;;4995193;28;19955;-72
2022/11/16 13:10:21;;;;;;;;;;;13.30;99.90;;;;;;4996489;28;20005;-71
2022/11/16 13:12:47;;;;;;;;;;;13.10;99.90;;;;;;4996700;28;19928;-71
2022/11/16 13:15:18;;;;;;;;;;;12.80;99.90;;;;;;4995222;28;20030;-71
2022/11/16 13:17:47;;;;;;;;;;;12.60;99.90;;;;;;4996659;28;19927;-71
2022/11/16 13:20:16;;;;;;;;;;;12.70;99.90;;;;;;4994965;28;19921;-71
2022/11/16 13:22:45;;;;;;;;;;;12.70;99.90;;;;;;4996524;28;19930;-72
2022/11/16 13:25:20;;;;;;;;;;;12.80;99.90;;;;;;4995533;28;19927;-71
2022/11/16 13:27:48;;;;;;;;;;;12.80;99.90;;;;;;4994644;28;19961;-71
2022/11/16 13:30:18;;;;;;;;;;;12.60;99.90;;;;;;4998474;28;20261;-71
2022/11/16 13:33:11;;;;;;;;;;;12.70;99.90;;;;;;4994513;28;20372;-71
2022/11/16 13:35:37;;;;;;;;;;;12.70;99.90;;;;;;4996071;28;19921;-71
2022/11/16 13:38:03;;;;;;;;;;;12.90;99.90;;;;;;4999906;28;19980;-71
2022/11/16 13:40:29;;;;;;;;;;;12.70;99.90;;;;;;4993619;28;20761;-71
2022/11/16 13:43:03;;;;;;;;;;;12.70;99.90;;;;;;4995904;28;19965;-71
2022/11/16 13:45:33;;;;;;;;;;;12.60;99.90;;;;;;4995231;28;20261;-71
2022/11/16 13:48:00;;;;;;;;;;;12.50;99.90;;;;;;4993201;28;19929;-72
2022/11/16 13:50:37;;;;;;;;;;;12.40;99.90;;;;;;4998665;28;20380;-71
2022/11/16 13:53:05;;;;;;;;;;;12.40;99.90;;;;;;4988378;28;20365;-72
2022/11/16 13:55:32;;;;;;;;;;;12.20;99.90;;;;;;4988014;28;20397;-73
2022/11/16 13:57:59;;;;;;;;;;;12.30;99.90;;;;;;4988958;28;20005;-72
2022/11/16 14:00:27;;;;;;;;;;;12.30;99.90;;;;;;4989882;28;19921;-71
2022/11/16 14:03:11;;;;;;;;;;;12.40;99.90;;;;;;4986520;28;19929;-73
2022/11/16 14:05:39;;;;;;;;;;;12.20;99.90;;;;;;4989009;28;19922;-73
2022/11/16 14:08:23;;;;;;;;;;;12.10;99.90;;;;;;4990034;28;20026;-71
2022/11/16 14:10:51;;;;;;;;;;;12.20;99.90;;;;;;4986273;28;20485;-70
2022/11/16 14:13:28;;;;;;;;;;;12.10;99.90;;;;;;4986563;28;19928;-71
2022/11/16 14:16:13;;;;;;;;;;;12.10;99.90;;;;;;4985573;28;20377;-70
2022/11/16 14:18:38;;;;;;;;;;;12.00;99.90;;;;;;4987011;28;19961;-71
2022/11/16 14:21:04;;;;;;;;;;;12.00;99.90;;;;;;4988649;28;19968;-70
2022/11/16 14:23:30;;;;;;;;;;;11.80;99.90;;;;;;4987580;28;20391;-71
2022/11/16 14:26:01;;;;;;;;;;;11.60;99.90;;;;;;4989182;28;19922;-70
2022/11/16 14:28:33;;;;;;;;;;;11.70;99.90;;;;;;4989140;28;20445;-70
2022/11/16 14:31:07;;;;;;;;;;;11.60;99.90;;;;;;4989436;28;19928;-69
2022/11/16 14:33:34;;;;;;;;;;;11.50;99.90;;;;;;4988671;28;20122;-71
2022/11/16 14:36:02;;;;;;;;;;;11.50;99.90;;;;;;4988885;28;20292;-70
2022/11/16 14:38:32;;;;;;;;;;;11.40;99.90;;;;;;4987782;28;19997;-69
2022/11/16 14:41:01;;;;;;;;;;;11.30;99.90;;;;;;4987305;28;19917;-70
2022/11/16 14:43:30;;;;;;;;;;;11.30;99.90;;;;;;4987281;28;19965;-71
2022/11/16 14:45:57;;;;;;;;;;;11.20;99.90;;;;;;5011507;28;20004;-72
2022/11/16 14:48:26;;;;;;;;;;;11.00;99.90;;;;;;4988628;28;19922;-72
2022/11/16 14:50:58;;;;;;;;;;;11.00;99.90;;;;;;4987394;28;19926;-69
2022/11/16 14:53:25;;;;;;;;;;;11.00;99.90;;;;;;4987660;28;19922;-69
2022/11/16 14:55:50;;;;;;;;;;;10.90;99.90;;;;;;4988685;28;20044;-70
2022/11/16 14:58:20;;;;;;;;;;;10.90;99.90;;;;;;4986428;28;20452;-71
2022/11/16 15:00:53;;;;;;;;;;;10.90;99.90;;;;;;4987931;28;20043;-72
2022/11/16 15:03:20;;;;;;;;;;;11.00;99.90;;;;;;4989946;28;19921;-70
2022/11/16 15:05:46;;;;;;;;;;;11.00;99.90;;;;;;4987303;28;19921;-70
2022/11/16 15:08:17;;;;;;;;;;;10.90;99.90;;;;;;4987489;28;20433;-71
2022/11/16 15:10:45;;;;;;;;;;;10.80;99.90;;;;;;4988803;28;19922;-69